Time;durP1;ratioP1;P1;durP2;ratioP2;P2;SDS_P1;SDS_P2;PMS_P1;PMS_P2;Temp;Humidity;BMP_temperature;BMP_pressure;BME280_temperature;BME280_humidity;BME280_pressure;Samples;Min_cycle;Max_cycle;Signal;HPM_P1;HPM_P2
2023/10/11 00:09:34;;;;;;;56.80;26.40;;;;;;;11.34;96.20;100424.23;672715;1265;139343;-81
2023/10/11 00:24:38;;;;;;;56.30;25.40;;;;;;;11.37;99.02;100405.23;670070;1262;139279;-82
2023/10/11 00:39:43;;;;;;;59.90;27.50;;;;;;;11.53;99.40;100396.63;672486;1267;139441;-81
2023/10/11 00:54:51;;;;;;;60.40;26.10;;;;;;;11.79;98.76;100387.42;672375;1261;139365;-81
2023/10/11 01:09:56;;;;;;;57.90;29.40;;;;;;;11.94;98.36;100378.52;669342;1264;140387;-80
2023/10/11 01:25:01;;;;;;;57.00;27.00;;;;;;;12.04;99.47;100375.95;671829;1262;139546;-80
2023/10/11 01:40:07;;;;;;;68.70;31.40;;;;;;;12.06;100.00;100364.64;672299;1280;139258;-81
2023/10/11 01:55:13;;;;;;;76.60;34.10;;;;;;;12.21;100.00;100339.44;672385;1264;139330;-81
2023/10/11 02:10:26;;;;;;;63.50;28.00;;;;;;;12.31;100.00;100315.52;672481;1262;140401;-80
2023/10/11 02:25:34;;;;;;;79.20;32.60;;;;;;;12.50;100.00;100288.98;673915;1263;139501;-81
2023/10/11 02:40:38;;;;;;;68.30;33.20;;;;;;;12.70;100.00;100269.48;672861;1265;139543;-82
2023/10/11 02:55:42;;;;;;;68.70;30.70;;;;;;;12.70;100.00;100255.99;672329;1264;139783;-82
2023/10/11 03:10:56;;;;;;;74.70;34.10;;;;;;;12.86;100.00;100256.43;672292;1262;140209;-81
2023/10/11 03:26:06;;;;;;;71.70;30.90;;;;;;;12.84;100.00;100230.40;672256;1265;141081;-81
2023/10/11 03:41:14;;;;;;;76.00;29.70;;;;;;;12.93;100.00;100222.53;678477;1265;139703;-80
2023/10/11 03:56:18;;;;;;;74.80;31.40;;;;;;;13.25;100.00;100219.92;671607;1264;140260;-80
2023/10/11 04:11:30;;;;;;;88.10;36.00;;;;;;;13.28;100.00;100200.48;669159;1262;141061;-81
2023/10/11 04:26:36;;;;;;;86.90;38.40;;;;;;;13.24;100.00;100183.95;668186;1265;139870;-81
2023/10/11 04:41:49;;;;;;;124.80;47.70;;;;;;;13.35;100.00;100155.29;673419;1265;139508;-81
2023/10/11 04:56:52;;;;;;;80.80;31.20;;;;;;;13.44;100.00;100136.86;672758;1266;140023;-81
2023/10/11 05:12:07;;;;;;;82.30;35.30;;;;;;;13.56;100.00;100124.27;672811;1265;139743;-80
2023/10/11 05:27:12;;;;;;;63.00;28.50;;;;;;;13.71;100.00;100106.20;672049;1265;140005;-81
2023/10/11 05:57:39;;;;;;;57.30;26.60;;;;;;;13.96;100.00;100093.56;672690;1265;139570;-81
2023/10/11 06:12:43;;;;;;;56.70;27.10;;;;;;;14.17;100.00;100084.35;671819;1271;140720;-81
2023/10/11 06:43:05;;;;;;;47.20;24.70;;;;;;;14.56;100.00;100051.30;672257;1262;139963;-80
2023/10/11 06:58:09;;;;;;;47.40;24.50;;;;;;;14.78;100.00;100043.62;667859;1266;140430;-80
2023/10/11 07:13:13;;;;;;;45.20;22.90;;;;;;;14.92;100.00;100027.84;667965;1265;139883;-80
2023/10/11 07:28:35;;;;;;;43.70;21.70;;;;;;;15.25;100.00;100009.80;667193;1265;140220;-80
2023/10/11 07:43:42;;;;;;;38.50;19.10;;;;;;;15.65;100.00;99990.05;671982;1265;139345;-80
2023/10/11 07:58:45;;;;;;;30.70;19.30;;;;;;;16.33;100.00;99972.32;671760;1265;139550;-80
2023/10/11 08:13:49;;;;;;;31.80;17.90;;;;;;;17.26;100.00;99967.37;672090;1265;139051;-80
2023/10/11 08:28:53;;;;;;;29.40;17.80;;;;;;;17.60;100.00;99951.49;672041;1265;158087;-80
2023/10/11 08:43:59;;;;;;;30.30;16.40;;;;;;;17.68;100.00;99931.29;671850;1265;139723;-80
2023/10/11 08:59:03;;;;;;;30.20;17.00;;;;;;;17.89;100.00;99917.27;674845;1265;139727;-81
2023/10/11 09:14:10;;;;;;;22.20;14.20;;;;;;;18.49;100.00;99885.16;674317;1265;139898;-79
2023/10/11 09:29:24;;;;;;;22.70;13.30;;;;;;;19.17;99.49;99885.71;671811;1267;139958;-80
2023/10/11 09:44:34;;;;;;;22.90;13.20;;;;;;;19.89;95.72;99864.69;672126;1277;139870;-80
2023/10/11 09:59:52;;;;;;;18.20;12.10;;;;;;;20.12;93.73;99853.08;672196;1265;139334;-81
2023/10/11 10:15:03;;;;;;;17.70;11.20;;;;;;;20.52;90.60;99825.38;671733;1267;139814;-80
2023/10/11 10:30:08;;;;;;;18.10;11.80;;;;;;;20.16;90.30;99834.67;672235;1265;139390;-82
2023/10/11 10:45:25;;;;;;;30.30;14.80;;;;;;;20.25;89.91;99817.48;671680;1262;140407;-81
2023/10/11 11:00:33;;;;;;;17.60;11.20;;;;;;;20.62;89.00;99802.08;671783;1266;139190;-80
2023/10/11 11:15:37;;;;;;;20.10;10.60;;;;;;;20.86;87.75;99787.34;671859;1276;139360;-80
2023/10/11 11:30:43;;;;;;;16.10;10.40;;;;;;;20.93;85.93;99780.93;672104;1265;140028;-80
2023/10/11 11:45:56;;;;;;;16.80;8.70;;;;;;;20.84;84.84;99769.27;672008;1266;139936;-81
2023/10/11 12:01:25;;;;;;;14.10;8.40;;;;;;;20.84;83.87;99744.86;671525;1265;139568;-81
2023/10/11 12:16:28;;;;;;;19.80;8.60;;;;;;;20.86;83.59;99756.17;672074;1276;139672;-80
2023/10/11 12:31:32;;;;;;;22.20;9.50;;;;;;;21.10;83.54;99757.39;670965;1269;139397;-81
2023/10/11 12:46:37;;;;;;;18.10;9.30;;;;;;;21.26;82.78;99730.46;667886;1265;139212;-81
2023/10/11 13:01:49;;;;;;;17.10;9.30;;;;;;;21.76;80.51;99726.65;672147;1265;139544;-80
2023/10/11 13:16:55;;;;;;;14.10;7.80;;;;;;;22.40;77.23;99717.96;669365;1264;139170;-80
2023/10/11 13:31:59;;;;;;;21.60;11.10;;;;;;;22.26;76.41;99698.83;670044;1265;139323;-81
2023/10/11 13:47:04;;;;;;;20.20;10.00;;;;;;;22.09;76.74;99695.05;668804;1276;139508;-80
2023/10/11 14:17:32;;;;;;;21.90;9.10;;;;;;;22.32;75.45;99686.95;667922;1267;139382;-80
2023/10/11 14:32:38;;;;;;;17.60;8.40;;;;;;;22.43;74.25;99672.05;676581;1266;138491;-81
2023/10/11 14:47:47;;;;;;;19.80;11.70;;;;;;;22.14;73.81;99667.83;673417;1263;139992;-80
2023/10/11 15:02:51;;;;;;;;;;;;;;;21.91;73.74;99672.42;668230;1267;139887;-79
2023/10/11 15:17:56;;;;;;;13.60;6.50;;;;;;;21.83;73.49;99658.78;668264;1264;125330;-78
2023/10/11 15:33:00;;;;;;;11.70;6.60;;;;;;;21.79;73.24;99656.04;668110;1267;139781;-81
2023/10/11 15:48:04;;;;;;;16.30;7.00;;;;;;;21.58;73.19;99661.82;671675;1271;138494;-82
2023/10/11 16:03:10;;;;;;;20.60;10.30;;;;;;;21.48;73.28;99654.62;671782;1264;140331;-80
2023/10/11 16:18:14;;;;;;;61.30;34.20;;;;;;;21.31;73.85;99664.44;672690;1266;139222;-80
2023/10/11 16:33:20;;;;;;;39.20;17.20;;;;;;;21.29;74.31;99645.16;670391;1264;139916;-80
2023/10/11 16:48:27;;;;;;;19.30;9.60;;;;;;;21.36;74.19;99634.59;671657;1268;139805;-81
2023/10/11 17:03:32;;;;;;;19.30;9.70;;;;;;;21.28;74.50;99651.42;672397;1266;139276;-80
2023/10/11 17:18:36;;;;;;;19.50;9.30;;;;;;;21.25;74.85;99643.56;668947;1267;139804;-80
2023/10/11 17:33:43;;;;;;;16.30;8.00;;;;;;;21.19;75.52;99645.73;673981;1263;138926;-80
2023/10/11 17:48:48;;;;;;;15.00;8.00;;;;;;;21.23;75.94;99648.18;672323;1263;139005;-80
2023/10/11 18:03:54;;;;;;;16.60;8.10;;;;;;;21.22;75.95;99646.52;672421;1271;139231;-80
2023/10/11 18:18:58;;;;;;;16.40;7.90;;;;;;;21.08;76.32;99635.69;669148;1262;139240;-80
2023/10/11 18:34:02;;;;;;;21.80;8.60;;;;;;;20.90;77.13;99639.51;670969;1265;139059;-80
2023/10/11 18:49:06;;;;;;;17.70;8.30;;;;;;;20.84;77.65;99626.19;675284;1262;139294;-81
2023/10/11 19:04:21;;;;;;;15.60;7.90;;;;;;;20.72;78.01;99621.13;676276;1262;138748;-82
2023/10/11 19:19:27;;;;;;;15.50;8.30;;;;;;;20.54;78.34;99618.51;673789;1264;139793;-81
2023/10/11 19:34:31;;;;;;;14.80;7.60;;;;;;;20.27;78.97;99605.02;673207;1267;139019;-81
2023/10/11 19:49:35;;;;;;;14.70;7.80;;;;;;;20.18;79.54;99597.26;673500;1261;139159;-81
2023/10/11 20:04:39;;;;;;;13.70;7.00;;;;;;;20.18;79.32;99587.27;679017;1265;138523;-81
2023/10/11 20:19:44;;;;;;;16.00;7.90;;;;;;;20.26;79.05;99564.70;672363;1267;165914;-80
2023/10/11 20:34:48;;;;;;;13.10;7.40;;;;;;;20.19;79.03;99567.23;669258;1265;139966;-80
2023/10/11 20:49:54;;;;;;;11.80;6.50;;;;;;;20.21;79.33;99559.75;671446;1265;138901;-82
2023/10/11 21:04:59;;;;;;;16.80;6.90;;;;;;;20.31;79.25;99557.33;674611;1267;139279;-81
2023/10/11 21:20:12;;;;;;;15.10;7.80;;;;;;;20.34;79.35;99543.34;672573;1265;139055;-81
2023/10/11 21:35:23;;;;;;;15.10;7.10;;;;;;;20.37;78.99;99540.25;669399;1265;139159;-82
2023/10/11 21:50:29;;;;;;;11.40;6.40;;;;;;;20.33;79.37;99528.19;668946;1276;139155;-81
2023/10/11 22:05:32;;;;;;;14.50;6.90;;;;;;;20.30;79.45;99505.33;672679;1268;139156;-81
2023/10/11 22:20:36;;;;;;;13.30;5.80;;;;;;;20.31;79.68;99492.45;674079;1265;139944;-81
2023/10/11 22:35:41;;;;;;;20.20;8.00;;;;;;;20.34;79.82;99487.17;672687;1261;138918;-81
2023/10/11 22:50:44;;;;;;;14.80;6.80;;;;;;;20.35;79.85;99483.56;671302;1265;139268;-81
2023/10/11 23:05:49;;;;;;;11.70;5.80;;;;;;;20.34;80.17;99494.55;673039;1265;139042;-81
2023/10/11 23:21:00;;;;;;;12.90;6.30;;;;;;;20.51;79.53;99482.80;672722;1262;139224;-81
2023/10/11 23:36:11;;;;;;;14.90;6.50;;;;;;;20.43;79.36;99463.05;672226;1265;139431;-80
2023/10/11 23:51:18;;;;;;;10.20;5.90;;;;;;;20.36;79.81;99452.48;668124;1263;139650;-80
